Webcam Meteoipassi more information Webcam Meteoipassi


altri nostri siti meteo:

Pomeziameteo 1Sito sul meteo

MeteopomeziaSito sul meteo

Pomeziameteo DashboardSito sul meteo

Caput FrigorisSito sul meteo

BarcellonameteoSito sul meteo

ViterbometeoSito sul meteo

MeteotortoretoSito sul meteo

TortoretometeolidoSito sul meteo

MeteoGonzagaSito sul meteo



Wind From: 05-08-2021 07:00 Until: 18:59 warning for: Wind Level: Yellow info button

Notice: Undefined offset: 6 in /web/htdocs/www.meteoipassi.it/home/weather28/metar/metarDisplay.php on line 75

Notice: Undefined offset: 5 in /web/htdocs/www.meteoipassi.it/home/weather28/metar/metarDisplay.php on line 75

Report METAR

   
LIRQ - Firenze
Dati ricevuti: Aug 5 2021 7:50 pm
Parzialmente nuvoloso  
Parzialmente nuvoloso  
   Vento: W 20.4 km/h
Vento: W 20.4 km/h
Temperatura: 24°C
P.to Rugiada: 16°C
Umidita: 61%
Barometro: 1009 hPa
Nuvole: Parzialmente nuvoloso
Visibilita: oltre 10 km
dettagli cloud: Parzialmente nuvoloso 1676.4 m
LIRQ 051750Z 25011KT 220V280 9999 SCT055 24/16 Q1009
LIRP - Lucca
Dati ricevuti: Aug 5 2021 7:45 pm
Parzialmente nuvoloso  
Parzialmente nuvoloso  
   Vento: West 24.1 km/h
Vento: West 24.1 km/h
Temperatura: 24°C
P.to Rugiada: 17°C
Umidita: 65%
Barometro: 1010 hPa
Nuvole: Parzialmente nuvoloso
Visibilita: oltre 10 km
dettagli cloud: Poche nuvole 762 m,
Parzialmente nuvoloso 1066.8 m
LIRP 051745Z 26013KT 9999 FEW025 SCT035 24/17 Q1010 TEMPO 24015G25KT
LIPE - Bologna
Dati ricevuti: Aug 5 2021 7:50 pm
Sereno  
Sereno  
   Vento: Sud 22.2 km/h
Vento: Sud 22.2 km/h
Temperatura: 27°C
Indice di Calore: 27°C
P.to Rugiada: 15°C
Umidita: 48%
Barometro: 1005 hPa
Visibilita: oltre 10 km
dettagli cloud: Sereno
LIPE 051750Z 18012KT CAVOK 27/15 Q1005
LIMP - Parma
Dati ricevuti: Aug 5 2021 7:50 pm
Sereno  
Sereno  
   Vento: SW 20.4 km/h
Vento: SW 20.4 km/h
Temperatura: 27°C
Indice di Calore: 27°C
P.to Rugiada: 14°C
Umidita: 45%
Barometro: 1005 hPa
Visibilita: oltre 10 km
dettagli cloud: Sereno
LIMP 051750Z 23011KT 210V270 CAVOK 27/14 Q1005
  

Script sviluppato da  Saratoga-weather.org Adattato per il modello da  Weerstation Leuven

Potete trovare le nostre info meteo anche a:

European Weather Network

Weather Underground

AWEKAS

HAMweather, WeatherForYou, PWS Weather

Strumentazione usata:

Stazione meteo
Davis Vantage Vue

Programma gestore dati meteo
WVIEW

Server per i dati meteo
WDS-5

Provider
Anemos WDS-5

Davis Vantage Vue

WVIEW

WDS-5

Anemos WDS-5